createdAt,value
2023-05-24T00:00:00.085Z, 0
2023-05-24T00:02:00.083Z, 0
2023-05-24T00:04:00.223Z, 0
2023-05-24T00:06:00.137Z, 0
2023-05-24T00:08:00.169Z, 0
2023-05-24T00:10:00.147Z, 0
2023-05-24T00:12:00.137Z, 0
2023-05-24T00:14:00.146Z, 0
2023-05-24T00:16:00.096Z, 0
2023-05-24T00:18:00.194Z, 0
2023-05-24T00:20:00.162Z, 0
2023-05-24T00:22:00.106Z, 0
2023-05-24T00:24:00.109Z, 0
2023-05-24T00:26:00.114Z, 0
2023-05-24T00:28:00.124Z, 0
2023-05-24T00:30:00.112Z, 0
2023-05-24T00:32:00.328Z, 0
2023-05-24T00:34:00.151Z, 0
2023-05-24T00:36:00.085Z, 0
2023-05-24T00:38:00.063Z, 0
2023-05-24T00:40:00.135Z, 0
2023-05-24T00:42:00.076Z, 0
2023-05-24T00:44:00.074Z, 0
2023-05-24T00:46:00.138Z, 0
2023-05-24T00:48:00.157Z, 0
2023-05-24T00:50:00.109Z, 0
2023-05-24T00:52:00.035Z, 0
2023-05-24T00:54:00.096Z, 0
2023-05-24T00:56:00.138Z, 0
2023-05-24T00:58:00.049Z, 0
2023-05-24T01:00:00.055Z, 0
2023-05-24T01:02:00.284Z, 0
2023-05-24T01:04:00.746Z, 0
2023-05-24T01:06:00.128Z, 0
2023-05-24T01:08:00.158Z, 0
2023-05-24T01:10:00.143Z, 0
2023-05-24T01:12:00.165Z, 0
2023-05-24T01:14:00.157Z, 0
2023-05-24T01:16:00.255Z, 0
2023-05-24T01:18:00.195Z, 0
2023-05-24T01:20:00.324Z, 0
2023-05-24T01:22:00.133Z, 0
2023-05-24T01:24:00.138Z, 0
2023-05-24T01:26:00.151Z, 0
2023-05-24T01:28:00.138Z, 0
2023-05-24T01:30:00.148Z, 0
2023-05-24T01:32:00.138Z, 0
2023-05-24T01:34:00.141Z, 0
2023-05-24T01:36:00.099Z, 0
2023-05-24T01:38:00.074Z, 0
2023-05-24T01:40:00.134Z, 0
2023-05-24T01:42:00.086Z, 0
2023-05-24T01:44:00.065Z, 0
2023-05-24T01:46:00.078Z, 0
2023-05-24T01:48:00.178Z, 0
2023-05-24T01:50:00.055Z, 0
2023-05-24T01:52:00.227Z, 0
2023-05-24T01:54:00.064Z, 0
2023-05-24T01:56:00.072Z, 0
2023-05-24T01:58:00.052Z, 0
2023-05-24T02:00:00.056Z, 0
2023-05-24T02:02:00.088Z, 0
2023-05-24T02:04:00.040Z, 0
2023-05-24T02:06:00.125Z, 0
2023-05-24T02:08:00.117Z, 0
2023-05-24T02:10:00.151Z, 0
2023-05-24T02:12:00.121Z, 0
2023-05-24T02:14:00.142Z, 0
2023-05-24T02:16:00.141Z, 0
2023-05-24T02:18:00.203Z, 0
2023-05-24T02:20:00.253Z, 0
2023-05-24T02:22:00.123Z, 0
2023-05-24T02:24:00.162Z, 0
2023-05-24T02:26:00.120Z, 0
2023-05-24T02:28:00.118Z, 0
2023-05-24T02:30:00.149Z, 0
2023-05-24T02:32:00.107Z, 0
2023-05-24T02:34:00.111Z, 0
2023-05-24T02:36:00.115Z, 0
2023-05-24T02:38:00.064Z, 0
2023-05-24T02:40:00.095Z, 0
2023-05-24T02:42:00.152Z, 0
2023-05-24T02:44:00.089Z, 0
2023-05-24T02:46:00.113Z, 0
2023-05-24T02:48:00.203Z, 0
2023-05-24T02:50:00.066Z, 0
2023-05-24T02:52:00.053Z, 0
2023-05-24T02:54:00.068Z, 0
2023-05-24T02:56:00.064Z, 0
2023-05-24T02:58:00.061Z, 0
2023-05-24T03:00:00.074Z, 0
2023-05-24T03:02:00.228Z, 0
2023-05-24T03:04:00.139Z, 0
2023-05-24T03:06:00.132Z, 0
2023-05-24T03:08:00.100Z, 0
2023-05-24T03:10:00.137Z, 0.01
2023-05-24T03:12:00.147Z, 0.01
2023-05-24T03:14:00.177Z, 0.01
2023-05-24T03:16:00.123Z, 0.01
2023-05-24T03:18:00.222Z, 0.01
2023-05-24T03:20:00.265Z, 0.02
2023-05-24T03:22:00.141Z, 0.02
2023-05-24T03:24:00.163Z, 0.03
2023-05-24T03:26:00.145Z, 0.03
2023-05-24T03:28:00.133Z, 0.04
2023-05-24T03:30:00.196Z, 0.05
2023-05-24T03:32:00.243Z, 0.05
2023-05-24T03:34:00.141Z, 0.06
2023-05-24T03:36:00.126Z, 0.07
2023-05-24T03:38:00.061Z, 0.08
2023-05-24T03:40:00.075Z, 0.1
2023-05-24T03:42:00.060Z, 0.11
2023-05-24T03:44:00.065Z, 0.12
2023-05-24T03:46:00.104Z, 0.13
2023-05-24T03:48:00.120Z, 0.15
2023-05-24T03:50:00.064Z, 0.16
2023-05-24T03:52:00.066Z, 0.18
2023-05-24T03:54:00.069Z, 0.2
2023-05-24T03:56:00.028Z, 0.21
2023-05-24T03:58:00.049Z, 0.23
2023-05-24T04:00:00.065Z, 0.25
2023-05-24T04:02:00.102Z, 0.26
2023-05-24T04:04:00.064Z, 0.28
2023-05-24T04:06:00.133Z, 0.3
2023-05-24T04:08:00.128Z, 0.35
2023-05-24T04:10:00.132Z, 0.4
2023-05-24T04:12:00.162Z, 0.38
2023-05-24T04:14:00.134Z, 0.37
2023-05-24T04:16:00.138Z, 0.47
2023-05-24T04:18:00.236Z, 0.63
2023-05-24T04:20:00.212Z, 0.67
2023-05-24T04:22:00.109Z, 0.71
2023-05-24T04:24:00.143Z, 0.75
2023-05-24T04:26:00.109Z, 0.77
2023-05-24T04:28:00.134Z, 0.83
2023-05-24T04:30:00.137Z, 0.86
2023-05-24T04:32:00.125Z, 0.96
2023-05-24T04:34:00.133Z, 0.98
2023-05-24T04:36:00.114Z, 1.07
2023-05-24T04:38:00.062Z, 1.1
2023-05-24T04:40:00.098Z, 1.07
2023-05-24T04:42:00.094Z, 1.13
2023-05-24T04:44:00.066Z, 1.17
2023-05-24T04:46:00.046Z, 1.33
2023-05-24T04:48:00.102Z, 1.35
2023-05-24T04:50:00.061Z, 1.56
2023-05-24T04:52:00.073Z, 1.61
2023-05-24T04:54:00.066Z, 1.66
2023-05-24T04:56:00.059Z, 1.44
2023-05-24T04:58:00.094Z, 1.4
2023-05-24T05:00:00.083Z, 1.63
2023-05-24T05:02:00.169Z, 1.58
2023-05-24T05:04:00.233Z, 1.54
2023-05-24T05:06:00.137Z, 1.59
2023-05-24T05:08:00.139Z, 1.76
2023-05-24T05:10:00.150Z, 1.58
2023-05-24T05:12:00.201Z, 1.47
2023-05-24T05:14:00.098Z, 1.66
2023-05-24T05:16:00.158Z, 1.8
2023-05-24T05:18:00.232Z, 1.91
2023-05-24T05:20:00.210Z, 2.15
2023-05-24T05:22:00.134Z, 1.93
2023-05-24T05:24:00.146Z, 2.15
2023-05-24T05:26:00.142Z, 2.23
2023-05-24T05:28:00.162Z, 2.89
2023-05-24T05:30:00.158Z, 1.9
2023-05-24T05:32:00.212Z, 2.27
2023-05-24T05:34:00.129Z, 1.92
2023-05-24T05:36:00.067Z, 1.99
2023-05-24T05:38:00.079Z, 1.85
2023-05-24T05:40:00.046Z, 1.88
2023-05-24T05:42:00.043Z, 1.97
2023-05-24T05:44:00.049Z, 2.05
2023-05-24T05:46:00.096Z, 1.8
2023-05-24T05:48:00.148Z, 1.8
2023-05-24T05:50:00.070Z, 1.81
2023-05-24T05:52:00.128Z, 1.85
2023-05-24T05:54:00.071Z, 1.86
2023-05-24T05:56:00.089Z, 2.21
2023-05-24T05:58:00.059Z, 2.19
2023-05-24T06:00:00.130Z, 2.22
2023-05-24T06:02:00.199Z, 2.47
2023-05-24T06:04:00.252Z, 2.14
2023-05-24T06:06:00.119Z, 2.08
2023-05-24T06:08:00.145Z, 2.07
2023-05-24T06:10:00.196Z, 2.15
2023-05-24T06:12:00.144Z, 2.13
2023-05-24T06:14:00.126Z, 2.25
2023-05-24T06:16:00.153Z, 2.29
2023-05-24T06:18:00.189Z, 2.43
2023-05-24T06:20:00.230Z, 2.55
2023-05-24T06:22:00.197Z, 2.78
2023-05-24T06:24:00.156Z, 2.9
2023-05-24T06:26:00.140Z, 3.21
2023-05-24T06:28:00.122Z, 3.48
2023-05-24T06:30:00.169Z, 4.34
2023-05-24T06:32:00.204Z, 5.26
2023-05-24T06:34:03.856Z, 6.22
2023-05-24T06:36:00.122Z, 6.57
2023-05-24T06:38:00.072Z, 6.37
2023-05-24T06:40:00.167Z, 5.95
2023-05-24T06:42:00.092Z, 5.76
2023-05-24T06:44:00.058Z, 5.51
2023-05-24T06:46:00.064Z, 5.2
2023-05-24T06:48:00.185Z, 4.96
2023-05-24T06:50:00.058Z, 5.13
2023-05-24T06:52:00.083Z, 5.46
2023-05-24T06:54:00.066Z, 5.51
2023-05-24T06:56:00.095Z, 4.02
2023-05-24T06:58:00.068Z, 5.67
2023-05-24T07:00:00.112Z, 5.58
2023-05-24T07:02:01.257Z, 3.61
2023-05-24T07:04:00.082Z, 2.62
2023-05-24T07:06:00.147Z, 2.13
2023-05-24T07:08:00.154Z, 1.93
2023-05-24T07:10:00.123Z, 2.1
2023-05-24T07:12:00.144Z, 2.6
2023-05-24T07:14:00.131Z, 2.2
2023-05-24T07:16:00.137Z, 3.05
2023-05-24T07:18:00.194Z, 3.81
2023-05-24T07:20:00.220Z, 4.12
2023-05-24T07:22:00.138Z, 3.81
2023-05-24T07:24:00.171Z, 3.87
2023-05-24T07:26:00.140Z, 3.84
2023-05-24T07:28:00.112Z, 3.04
2023-05-24T07:30:00.251Z, 2.6
2023-05-24T07:32:00.152Z, 2.22
2023-05-24T07:34:00.149Z, 2.52
2023-05-24T07:36:00.084Z, 2.35
2023-05-24T07:38:00.040Z, 2.31
2023-05-24T07:40:00.050Z, 2.24
2023-05-24T07:42:00.052Z, 2.13
2023-05-24T07:44:00.092Z, 2.07
2023-05-24T07:46:00.193Z, 2.04
2023-05-24T07:48:00.099Z, 1.99
2023-05-24T07:50:00.062Z, 1.82
2023-05-24T07:52:00.045Z, 1.68
2023-05-24T07:54:00.057Z, 1.6
2023-05-24T07:56:00.047Z, 1.59
2023-05-24T07:58:00.064Z, 1.57
2023-05-24T08:00:00.094Z, 1.5
2023-05-24T08:02:00.048Z, 1.45
2023-05-24T08:04:00.215Z, 1.45
2023-05-24T08:06:00.126Z, 1.47
2023-05-24T08:08:00.141Z, 1.49
2023-05-24T08:10:00.154Z, 1.52
2023-05-24T08:12:00.157Z, 1.58
2023-05-24T08:14:00.126Z, 1.71
2023-05-24T08:16:00.122Z, 1.89
2023-05-24T08:18:00.186Z, 2.15
2023-05-24T08:20:00.282Z, 2.48
2023-05-24T08:22:00.161Z, 5.28
2023-05-24T08:24:00.149Z, 2.98
2023-05-24T08:26:00.339Z, 3.94
2023-05-24T08:28:00.179Z, 6.09
2023-05-24T08:30:00.133Z, 6.89
2023-05-24T08:32:00.218Z, 6.44
2023-05-24T08:34:00.128Z, 3.24
2023-05-24T08:36:00.079Z, 6.5
2023-05-24T08:38:00.096Z, 7.27
2023-05-24T08:40:00.042Z, 3.86
2023-05-24T08:42:09.215Z, 7.46
2023-05-24T08:44:00.048Z, 6.84
2023-05-24T08:46:00.127Z, 7.33
2023-05-24T08:48:00.195Z, 3.67
2023-05-24T08:50:00.060Z, 4.55
2023-05-24T08:52:00.056Z, 3.53
2023-05-24T08:54:00.079Z, 2.86
2023-05-24T08:56:00.063Z, 2.82
2023-05-24T08:58:00.054Z, 3.18
2023-05-24T09:00:00.079Z, 2.89
2023-05-24T09:02:00.208Z, 3.34
2023-05-24T09:04:00.080Z, 2.58
2023-05-24T09:06:00.148Z, 6.82
2023-05-24T09:08:00.136Z, 7.39
2023-05-24T09:10:00.141Z, 7.8
2023-05-24T09:12:00.152Z, 3.71
2023-05-24T09:14:00.147Z, 2.8
2023-05-24T09:16:00.272Z, 2.67
2023-05-24T09:18:00.154Z, 2.37
2023-05-24T09:20:00.348Z, 2.52
2023-05-24T09:22:00.110Z, 2.96
2023-05-24T09:24:00.145Z, 2.7
2023-05-24T09:26:00.125Z, 3.24
2023-05-24T09:28:00.135Z, 3.2
2023-05-24T09:30:00.202Z, 7.41
2023-05-24T09:32:00.165Z, 5.65
2023-05-24T09:34:00.109Z, 6.73
2023-05-24T09:36:00.153Z, 3.02
2023-05-24T09:38:00.382Z, 6.94
2023-05-24T09:40:00.173Z, 6.9
2023-05-24T09:42:00.061Z, 6.87
2023-05-24T09:44:00.064Z, 7.02
2023-05-24T09:46:00.055Z, 7.04
2023-05-24T09:48:00.169Z, 7.06
2023-05-24T09:50:00.127Z, 7.13
2023-05-24T09:52:00.175Z, 7.21
2023-05-24T09:54:00.055Z, 6.9
2023-05-24T09:56:00.093Z, 7.1
2023-05-24T09:58:00.055Z, 7.35
2023-05-24T10:00:00.070Z, 7.62
2023-05-24T10:02:00.053Z, 7.49
2023-05-24T10:04:00.216Z, 7.53
2023-05-24T10:06:00.117Z, 2.79
2023-05-24T10:08:00.150Z, 2.39
2023-05-24T10:10:00.129Z, 3.34
2023-05-24T10:12:00.131Z, 4
2023-05-24T10:14:00.127Z, 4.53
2023-05-24T10:16:00.103Z, 5.79
2023-05-24T10:18:00.176Z, 4.47
2023-05-24T10:20:00.240Z, 3.57
2023-05-24T10:22:00.175Z, 3.5
2023-05-24T10:24:00.169Z, 6.07
2023-05-24T10:26:00.116Z, 8
2023-05-24T10:28:00.137Z, 7.73
2023-05-24T10:30:00.138Z, 4.46
2023-05-24T10:32:00.156Z, 3.66
2023-05-24T10:36:00.061Z, 6.02
2023-05-24T10:38:00.055Z, 7.97
2023-05-24T10:40:00.085Z, 8.35
2023-05-24T10:41:49.926Z, 3.44
2023-05-24T10:42:00.042Z, 7
2023-05-24T10:44:08.599Z, 6.66
2023-05-24T10:46:00.073Z, 6.98
2023-05-24T10:48:00.103Z, 7.28
2023-05-24T10:50:00.107Z, 7.14
2023-05-24T10:52:00.047Z, 2.85
2023-05-24T10:54:00.049Z, 3.23
2023-05-24T10:56:00.092Z, 4.23
2023-05-24T10:58:00.042Z, 3.67
2023-05-24T11:00:00.064Z, 3.57
2023-05-24T11:02:00.149Z, 3.5
2023-05-24T11:04:00.049Z, 3.29
2023-05-24T11:06:00.327Z, 3.18
2023-05-24T11:08:00.159Z, 2.78
2023-05-24T11:10:00.176Z, 2.68
2023-05-24T11:12:00.148Z, 2.81
2023-05-24T11:14:00.170Z, 2.94
2023-05-24T11:16:00.216Z, 3.03
2023-05-24T11:18:00.274Z, 2.86
2023-05-24T11:20:00.183Z, 2.49
2023-05-24T11:22:00.143Z, 2.72
2023-05-24T11:24:00.157Z, 3.44
2023-05-24T11:26:00.094Z, 5.97
2023-05-24T11:28:00.165Z, 4.4
2023-05-24T11:30:00.150Z, 5.04
2023-05-24T11:32:00.206Z, 4.1
2023-05-24T11:34:00.134Z, 5.98
2023-05-24T11:36:00.116Z, 2.67
2023-05-24T11:38:00.068Z, 1.98
2023-05-24T11:40:00.098Z, 1.77
2023-05-24T11:42:00.176Z, 1.63
2023-05-24T11:44:00.073Z, 1.64
2023-05-24T11:46:00.110Z, 1.73
2023-05-24T11:48:00.162Z, 1.83
2023-05-24T11:50:00.060Z, 2.01
2023-05-24T11:52:00.054Z, 2.28
2023-05-24T11:54:00.136Z, 2.49
2023-05-24T11:56:00.067Z, 2.64
2023-05-24T11:58:00.050Z, 2.67
2023-05-24T12:00:00.067Z, 2.49
2023-05-24T12:02:00.296Z, 2.22
2023-05-24T12:04:00.137Z, 1.9
2023-05-24T12:06:00.085Z, 1.69
2023-05-24T12:08:00.147Z, 1.68
2023-05-24T12:10:00.168Z, 1.8
2023-05-24T12:12:00.182Z, 1.91
2023-05-24T12:14:00.107Z, 2.11
2023-05-24T12:16:00.171Z, 2.33
2023-05-24T12:18:00.260Z, 2.39
2023-05-24T12:20:00.275Z, 2.34
2023-05-24T12:22:00.253Z, 2.22
2023-05-24T12:24:00.134Z, 2.15
2023-05-24T12:26:00.152Z, 2.01
2023-05-24T12:28:00.163Z, 1.85
2023-05-24T12:30:00.225Z, 1.76
2023-05-24T12:32:00.181Z, 1.76
2023-05-24T12:34:00.170Z, 1.82
2023-05-24T12:36:00.102Z, 1.88
2023-05-24T12:38:00.047Z, 1.89
2023-05-24T12:40:00.066Z, 1.9
2023-05-24T12:42:00.050Z, 1.92
2023-05-24T12:44:00.055Z, 1.91
2023-05-24T12:46:00.052Z, 1.89
2023-05-24T12:48:00.103Z, 1.87
2023-05-24T12:50:00.148Z, 1.87
2023-05-24T12:52:00.048Z, 1.86
2023-05-24T12:54:00.054Z, 1.76
2023-05-24T12:56:00.038Z, 1.63
2023-05-24T12:58:00.063Z, 1.56
2023-05-24T13:00:00.051Z, 1.53
2023-05-24T13:02:00.043Z, 1.49
2023-05-24T13:04:00.060Z, 1.44
2023-05-24T13:06:00.129Z, 1.4
2023-05-24T13:08:00.108Z, 1.38
2023-05-24T13:10:00.150Z, 1.31
2023-05-24T13:12:00.153Z, 1.28
2023-05-24T13:14:00.155Z, 1.25
2023-05-24T13:16:00.097Z, 1.26
2023-05-24T13:18:00.166Z, 1.25
2023-05-24T13:20:00.208Z, 1.21
2023-05-24T13:22:00.145Z, 1.21
2023-05-24T13:24:00.136Z, 1.2
2023-05-24T13:26:00.096Z, 1.17
2023-05-24T13:28:00.124Z, 1.18
2023-05-24T13:30:01.533Z, 1.18
2023-05-24T13:32:00.094Z, 1.16
2023-05-24T13:34:00.094Z, 1.18
2023-05-24T13:36:00.070Z, 1.24
2023-05-24T13:38:00.073Z, 1.29
2023-05-24T13:40:00.082Z, 1.35
2023-05-24T13:42:00.114Z, 1.41
2023-05-24T13:44:00.089Z, 1.47
2023-05-24T13:46:00.083Z, 1.55
2023-05-24T13:48:00.105Z, 1.61
2023-05-24T13:50:00.072Z, 1.73
2023-05-24T13:52:00.074Z, 1.92
2023-05-24T13:54:00.060Z, 2.13
2023-05-24T13:56:00.093Z, 2.4
2023-05-24T13:58:00.052Z, 2.54
2023-05-24T14:00:00.103Z, 2.32
2023-05-24T14:02:00.164Z, 2.04
2023-05-24T14:04:00.044Z, 1.93
2023-05-24T14:06:00.154Z, 1.82
2023-05-24T14:08:00.191Z, 1.73
2023-05-24T14:10:00.165Z, 1.76
2023-05-24T14:12:00.138Z, 1.82
2023-05-24T14:16:00.166Z, 1.96
2023-05-24T14:18:00.126Z, 2.14
2023-05-24T14:20:00.146Z, 2.4
2023-05-24T14:22:00.148Z, 2.62
2023-05-24T14:24:00.152Z, 2.77
2023-05-24T14:26:00.133Z, 3.08
2023-05-24T14:28:00.127Z, 3.36
2023-05-24T14:30:00.149Z, 3.38
2023-05-24T14:32:00.180Z, 4.78
2023-05-24T14:34:00.101Z, 7.14
2023-05-24T14:36:00.120Z, 5.4
2023-05-24T14:38:00.073Z, 5.79
2023-05-24T14:40:00.416Z, 6.99
2023-05-24T14:42:00.076Z, 6.63
2023-05-24T14:44:00.063Z, 2.35
2023-05-24T14:46:00.084Z, 2.34
2023-05-24T14:48:00.112Z, 5.89
2023-05-24T14:50:00.156Z, 5.45
2023-05-24T14:52:00.066Z, 5.28
2023-05-24T14:54:00.138Z, 5.12
2023-05-24T14:56:00.119Z, 2.57
2023-05-24T14:58:00.067Z, 2.82
2023-05-24T15:00:00.100Z, 4.69
2023-05-24T15:02:00.063Z, 3.16
2023-05-24T15:04:00.069Z, 2.83
2023-05-24T15:06:00.125Z, 2.93
2023-05-24T15:08:00.104Z, 2.18
2023-05-24T15:10:00.124Z, 2
2023-05-24T15:12:00.140Z, 1.86
2023-05-24T15:14:00.126Z, 1.74
2023-05-24T15:16:00.091Z, 1.63
2023-05-24T15:18:00.208Z, 1.51
2023-05-24T15:20:00.191Z, 1.42
2023-05-24T15:22:00.104Z, 1.47
2023-05-24T15:24:00.131Z, 1.61
2023-05-24T15:26:00.104Z, 1.75
2023-05-24T15:28:00.173Z, 1.88
2023-05-24T15:30:00.200Z, 1.97
2023-05-24T15:32:00.143Z, 2.03
2023-05-24T15:34:00.144Z, 2.03
2023-05-24T15:36:00.083Z, 1.98
2023-05-24T15:38:00.064Z, 1.91
2023-05-24T15:40:00.087Z, 1.86
2023-05-24T15:42:00.054Z, 1.99
2023-05-24T15:44:00.064Z, 2.59
2023-05-24T15:46:00.050Z, 3.04
2023-05-24T15:48:00.080Z, 1.96
2023-05-24T15:50:00.052Z, 1.72
2023-05-24T15:52:04.295Z, 2.27
2023-05-24T15:54:00.066Z, 1.62
2023-05-24T15:56:00.091Z, 1.48
2023-05-24T15:58:00.039Z, 1.43
2023-05-24T16:00:00.051Z, 1.54
2023-05-24T16:02:00.102Z, 1.7
2023-05-24T16:04:00.072Z, 2.35
2023-05-24T16:06:00.100Z, 1.99
2023-05-24T16:08:00.142Z, 3.24
2023-05-24T16:10:00.120Z, 3.09
2023-05-24T16:12:00.944Z, 4.43
2023-05-24T16:14:00.131Z, 2.21
2023-05-24T16:16:00.133Z, 2.11
2023-05-24T16:18:00.182Z, 3.54
2023-05-24T16:20:00.160Z, 3.26
2023-05-24T16:22:00.123Z, 3.05
2023-05-24T16:24:01.932Z, 2.76
2023-05-24T16:26:00.111Z, 2.86
2023-05-24T16:28:00.149Z, 2.74
2023-05-24T16:30:00.120Z, 2.64
2023-05-24T16:32:00.155Z, 2.55
2023-05-24T16:34:00.127Z, 1.93
2023-05-24T16:36:02.124Z, 0.95
2023-05-24T16:38:00.054Z, 2.17
2023-05-24T16:40:00.069Z, 1.11
2023-05-24T16:42:01.583Z, 2.43
2023-05-24T16:44:00.054Z, 2.4
2023-05-24T16:46:00.163Z, 2.46
2023-05-24T16:48:00.182Z, 2.41
2023-05-24T16:50:00.044Z, 2.36
2023-05-24T16:52:00.050Z, 2.3
2023-05-24T16:54:00.063Z, 2.23
2023-05-24T16:56:00.139Z, 2.15
2023-05-24T16:58:00.071Z, 1.88
2023-05-24T17:00:00.066Z, 1.97
2023-05-24T17:02:00.205Z, 1.91
2023-05-24T17:04:00.290Z, 1.67
2023-05-24T17:06:02.981Z, 1.6
2023-05-24T17:08:00.138Z, 1.87
2023-05-24T17:10:00.104Z, 1.86
2023-05-24T17:12:00.142Z, 1.83
2023-05-24T17:14:00.132Z, 1.73
2023-05-24T17:16:00.450Z, 1.63
2023-05-24T17:18:00.172Z, 1.59
2023-05-24T17:20:00.171Z, 1.58
2023-05-24T17:22:00.147Z, 1.57
2023-05-24T17:24:00.146Z, 1.54
2023-05-24T17:26:00.133Z, 1.53
2023-05-24T17:28:00.105Z, 1.56
2023-05-24T17:30:00.136Z, 1.59
2023-05-24T17:32:00.258Z, 1.57
2023-05-24T17:34:00.148Z, 1.49
2023-05-24T17:36:00.088Z, 1.34
2023-05-24T17:38:00.072Z, 1.42
2023-05-24T17:40:00.087Z, 1.13
2023-05-24T17:42:00.081Z, 1.2
2023-05-24T17:44:00.116Z, 1.1
2023-05-24T17:46:00.166Z, 1.07
2023-05-24T17:48:00.151Z, 1.03
2023-05-24T17:50:00.061Z, 1
2023-05-24T17:52:00.974Z, 0.99
2023-05-24T17:54:00.099Z, 0.97
2023-05-24T17:56:00.079Z, 0.96
2023-05-24T17:58:00.112Z, 0.91
2023-05-24T18:00:00.130Z, 0.86
2023-05-24T18:02:00.044Z, 0.8
2023-05-24T18:04:00.049Z, 0.76
2023-05-24T18:06:00.116Z, 0.73
2023-05-24T18:08:00.157Z, 0.7
2023-05-24T18:10:00.641Z, 0.7
2023-05-24T18:12:00.129Z, 0.7
2023-05-24T18:14:00.144Z, 0.68
2023-05-24T18:16:00.096Z, 0.64
2023-05-24T18:18:00.188Z, 0.61
2023-05-24T18:20:00.305Z, 0.59
2023-05-24T18:22:00.158Z, 0.58
2023-05-24T18:24:00.154Z, 0.53
2023-05-24T18:26:01.548Z, 0.48
2023-05-24T18:28:00.150Z, 0.44
2023-05-24T18:30:00.142Z, 0.39
2023-05-24T18:32:00.182Z, 0.35
2023-05-24T18:34:01.742Z, 0.33
2023-05-24T18:36:00.064Z, 0.3
2023-05-24T18:38:00.099Z, 0.29
2023-05-24T18:40:00.069Z, 0.27
2023-05-24T18:42:00.090Z, 0.26
2023-05-24T18:44:00.070Z, 0.25
2023-05-24T18:46:00.068Z, 0.25
2023-05-24T18:48:00.097Z, 0.23
2023-05-24T18:50:00.041Z, 0.21
2023-05-24T18:52:00.041Z, 0.19
2023-05-24T18:54:00.048Z, 0.18
2023-05-24T18:56:00.103Z, 0.16
2023-05-24T18:58:00.069Z, 0.15
2023-05-24T19:00:00.062Z, 0.13
2023-05-24T19:02:00.127Z, 0.12
2023-05-24T19:04:00.040Z, 0.11
2023-05-24T19:06:00.134Z, 0.1
2023-05-24T19:08:00.136Z, 0.09
2023-05-24T19:10:00.161Z, 0.08
2023-05-24T19:12:00.169Z, 0.07
2023-05-24T19:14:00.137Z, 0.06
2023-05-24T19:16:00.105Z, 0.06
2023-05-24T19:18:00.200Z, 0.05
2023-05-24T19:20:00.175Z, 0.04
2023-05-24T19:22:00.122Z, 0.04
2023-05-24T19:24:00.155Z, 0.03
2023-05-24T19:26:00.180Z, 0.02
2023-05-24T19:28:00.913Z, 0.02
2023-05-24T19:30:00.267Z, 0.01
2023-05-24T19:32:00.166Z, 0.01
2023-05-24T19:34:01.186Z, 0.01
2023-05-24T19:36:00.083Z, 0.01
2023-05-24T19:38:00.076Z, 0
2023-05-24T19:40:00.094Z, 0
2023-05-24T19:42:00.054Z, 0
2023-05-24T19:44:00.055Z, 0
2023-05-24T19:46:00.079Z, 0
2023-05-24T19:48:00.196Z, 0
2023-05-24T19:50:00.130Z, 0
2023-05-24T19:52:00.069Z, 0
2023-05-24T19:54:00.055Z, 0
2023-05-24T19:56:00.066Z, 0
2023-05-24T19:58:00.054Z, 0
2023-05-24T20:00:00.043Z, 0
2023-05-24T20:02:00.184Z, 0
2023-05-24T20:04:00.130Z, 0
2023-05-24T20:06:00.096Z, 0
2023-05-24T20:08:00.149Z, 0
2023-05-24T20:10:00.205Z, 0
2023-05-24T20:12:00.203Z, 0
2023-05-24T20:14:00.140Z, 0
2023-05-24T20:16:00.181Z, 0
2023-05-24T20:18:00.283Z, 0
2023-05-24T20:20:00.181Z, 0
2023-05-24T20:22:00.177Z, 0
2023-05-24T20:24:00.158Z, 0
2023-05-24T20:26:00.137Z, 0
2023-05-24T20:28:00.146Z, 0
2023-05-24T20:30:00.122Z, 0
2023-05-24T20:32:00.216Z, 0
2023-05-24T20:34:00.092Z, 0
2023-05-24T20:36:00.145Z, 0
2023-05-24T20:38:00.078Z, 0
2023-05-24T20:40:00.128Z, 0
2023-05-24T20:42:00.082Z, 0
2023-05-24T20:44:00.064Z, 0
2023-05-24T20:46:00.173Z, 0
2023-05-24T20:48:00.138Z, 0
2023-05-24T20:50:00.082Z, 0
2023-05-24T20:52:00.050Z, 0
2023-05-24T20:54:00.118Z, 0
2023-05-24T20:56:00.056Z, 0
2023-05-24T20:58:00.074Z, 0
2023-05-24T21:00:00.123Z, 0
2023-05-24T21:02:00.113Z, 0
2023-05-24T21:04:00.055Z, 0
2023-05-24T21:06:00.137Z, 0
2023-05-24T21:08:00.101Z, 0
2023-05-24T21:10:00.143Z, 0
2023-05-24T21:12:00.128Z, 0
2023-05-24T21:14:00.152Z, 0
2023-05-24T21:16:00.140Z, 0
2023-05-24T21:18:00.241Z, 0
2023-05-24T21:20:00.222Z, 0
2023-05-24T21:22:00.171Z, 0
2023-05-24T21:24:00.144Z, 0
2023-05-24T21:26:00.135Z, 0
2023-05-24T21:28:00.197Z, 0
2023-05-24T21:30:00.221Z, 0
2023-05-24T21:32:00.152Z, 0
2023-05-24T21:34:00.130Z, 0
2023-05-24T21:36:00.071Z, 0
2023-05-24T21:38:00.099Z, 0
2023-05-24T21:40:00.061Z, 0
2023-05-24T21:42:00.051Z, 0
2023-05-24T21:44:00.053Z, 0
2023-05-24T21:46:00.053Z, 0
2023-05-24T21:48:00.108Z, 0
2023-05-24T21:50:00.062Z, 0
2023-05-24T21:52:00.042Z, 0
2023-05-24T21:54:00.063Z, 0
2023-05-24T21:56:00.044Z, 0
2023-05-24T21:58:00.058Z, 0
2023-05-24T22:00:00.132Z, 0
2023-05-24T22:02:00.101Z, 0
2023-05-24T22:04:00.068Z, 0
2023-05-24T22:06:00.175Z, 0
2023-05-24T22:08:00.136Z, 0
2023-05-24T22:10:00.163Z, 0
2023-05-24T22:12:00.129Z, 0
2023-05-24T22:14:00.129Z, 0
2023-05-24T22:16:00.161Z, 0
2023-05-24T22:18:00.242Z, 0
2023-05-24T22:20:00.170Z, 0
2023-05-24T22:22:00.145Z, 0
2023-05-24T22:24:00.107Z, 0
2023-05-24T22:26:00.168Z, 0
2023-05-24T22:28:00.157Z, 0
2023-05-24T22:30:00.131Z, 0
2023-05-24T22:32:00.212Z, 0
2023-05-24T22:34:00.132Z, 0
2023-05-24T22:36:00.097Z, 0
2023-05-24T22:38:00.054Z, 0
2023-05-24T22:40:00.071Z, 0
2023-05-24T22:42:00.043Z, 0
2023-05-24T22:44:00.054Z, 0
2023-05-24T22:46:00.098Z, 0
2023-05-24T22:48:00.152Z, 0
2023-05-24T22:50:00.054Z, 0
2023-05-24T22:52:00.055Z, 0
2023-05-24T22:54:00.073Z, 0
2023-05-24T22:56:00.050Z, 0
2023-05-24T22:58:00.057Z, 0
2023-05-24T23:00:00.074Z, 0
2023-05-24T23:02:00.047Z, 0
2023-05-24T23:04:11.570Z, 0
2023-05-24T23:06:00.134Z, 0
2023-05-24T23:08:00.098Z, 0
2023-05-24T23:10:00.191Z, 0
2023-05-24T23:12:00.128Z, 0
2023-05-24T23:14:00.132Z, 0
2023-05-24T23:16:00.119Z, 0
2023-05-24T23:18:00.222Z, 0
2023-05-24T23:20:00.176Z, 0
2023-05-24T23:22:00.134Z, 0
2023-05-24T23:24:00.150Z, 0
2023-05-24T23:26:00.158Z, 0
2023-05-24T23:28:00.163Z, 0
2023-05-24T23:30:00.176Z, 0
2023-05-24T23:32:00.153Z, 0
2023-05-24T23:34:00.134Z, 0
2023-05-24T23:36:00.076Z, 0
2023-05-24T23:38:00.059Z, 0
2023-05-24T23:40:00.061Z, 0
2023-05-24T23:42:00.030Z, 0
2023-05-24T23:44:00.103Z, 0
2023-05-24T23:46:00.056Z, 0
2023-05-24T23:48:00.081Z, 0
2023-05-24T23:50:00.069Z, 0
2023-05-24T23:52:00.065Z, 0
2023-05-24T23:54:00.060Z, 0
2023-05-24T23:56:00.045Z, 0
2023-05-24T23:58:00.050Z, 0
